ENOV/HOV METAR and TAF weather

Enter ICAO airport designator
Station Type Date Time Source
ENOV METAR 2020/05/30 03:50 UTC NOAA

ENOV 300350Z VRB01KT CAVOK 08/06 Q1031 RMK WIND 2175FT 14009KT


Station Type Date Time Source
ENOV Decoded METAR 2020/05/30 03:50 UTC NOAA

Orsta-Volda / Hovden, Norway (ENOV) 62-11N 006-04E 74M
May 29, 2020 - 11:50 PM EDT / 2020.05.30 0350 UTC
Wind: Variable at 1 MPH (1 KT):0
Visibility: greater than 7 mile(s):0
Temperature: 46 F (8 C)
Dew Point: 42 F (6 C)
Relative Humidity: 87%
Pressure (altimeter): 30.45 in. Hg (1031 hPa)
ob: ENOV 300350Z VRB01KT CAVOK 08/06 Q1031 RMK WIND 2175FT 14009KT
cycle: 4

Station Type Date Time Source
ENOV TAF UTC NOAA

Error!

Example: see airport list